createdAt,value
2023-01-23T00:01:35.761Z,-1.74
2023-01-23T00:04:05.038Z,-1.79
2023-01-23T00:06:32.832Z,-1.80
2023-01-23T00:09:00.467Z,-1.73
2023-01-23T00:11:30.576Z,-1.73
2023-01-23T00:14:00.219Z,-1.65
2023-01-23T00:16:31.290Z,-1.70
2023-01-23T00:18:59.565Z,-1.70
2023-01-23T00:21:29.169Z,-1.75
2023-01-23T00:23:59.432Z,-1.76
2023-01-23T00:26:30.228Z,-1.83
2023-01-23T00:28:58.097Z,-1.82
2023-01-23T00:31:33.037Z,-1.70
2023-01-23T00:34:03.747Z,-1.64
2023-01-23T00:36:37.059Z,-1.60
2023-01-23T00:39:08.173Z,-1.64
2023-01-23T00:41:35.898Z,-1.67
2023-01-23T00:44:04.987Z,-2.00
2023-01-23T00:46:32.536Z,-1.93
2023-01-23T00:49:00.065Z,-1.81
2023-01-23T00:51:27.544Z,-1.75
2023-01-23T00:53:55.167Z,-1.83
2023-01-23T00:56:22.697Z,-1.73
2023-01-23T00:58:50.219Z,-1.68
2023-01-23T01:01:18.588Z,-1.62
2023-01-23T01:03:46.788Z,-1.56
2023-01-23T01:06:14.302Z,-1.54
2023-01-23T01:08:41.919Z,-1.50
2023-01-23T01:11:09.470Z,-1.50
2023-01-23T01:13:37.624Z,-1.46
2023-01-23T01:16:05.699Z,-1.46
2023-01-23T01:18:33.398Z,-1.46
2023-01-23T01:21:00.954Z,-1.44
2023-01-23T01:23:28.583Z,-1.42
2023-01-23T01:25:59.823Z,-1.43
2023-01-23T01:28:30.567Z,-1.40
2023-01-23T01:30:59.223Z,-1.40
2023-01-23T01:33:28.672Z,-1.41
2023-01-23T01:35:56.930Z,-1.42
2023-01-23T01:38:25.080Z,-1.41
2023-01-23T01:40:52.995Z,-1.44
2023-01-23T01:43:23.587Z,-1.48
2023-01-23T01:46:27.760Z,-1.32
2023-01-23T01:49:19.773Z,-1.32
2023-01-23T01:52:04.006Z,-1.28
2023-01-23T01:54:49.117Z,-1.24
2023-01-23T01:57:22.233Z,-1.24
2023-01-23T02:00:04.146Z,-1.18
2023-01-23T02:02:47.875Z,-1.22
2023-01-23T02:05:25.570Z,-1.28
2023-01-23T02:08:17.324Z,-1.23
2023-01-23T02:10:46.987Z,-1.28
2023-01-23T02:13:30.663Z,-1.20
2023-01-23T02:16:01.249Z,-1.26
2023-01-23T02:18:31.046Z,-1.25
2023-01-23T02:21:01.839Z,-1.21
2023-01-23T02:23:47.423Z,-1.13
2023-01-23T02:26:34.312Z,-1.16
2023-01-23T02:29:01.839Z,-1.24
2023-01-23T02:31:33.636Z,-1.30
2023-01-23T02:34:01.803Z,-1.25
2023-01-23T02:36:32.939Z,-1.21
2023-01-23T02:39:13.604Z,-1.15
2023-01-23T02:41:46.742Z,-1.16
2023-01-23T02:44:21.450Z,-1.16
2023-01-23T02:46:56.970Z,-1.24
2023-01-23T02:49:27.794Z,-1.24
2023-01-23T02:51:56.753Z,-1.25
2023-01-23T02:54:25.852Z,-1.19
2023-01-23T02:56:53.850Z,-1.27
2023-01-23T02:59:42.419Z,-1.25
2023-01-23T03:02:11.178Z,-1.25
2023-01-23T03:04:38.753Z,-1.31
2023-01-23T03:07:06.226Z,-1.44
2023-01-23T03:09:33.842Z,-1.28
2023-01-23T03:12:01.498Z,-1.28
2023-01-23T03:14:30.349Z,-1.31
2023-01-23T03:16:59.456Z,-1.32
2023-01-23T03:19:31.637Z,-1.32
2023-01-23T03:21:59.507Z,-1.32
2023-01-23T03:24:27.025Z,-1.30
2023-01-23T03:26:54.565Z,-1.28
2023-01-23T03:29:45.365Z,-1.27
2023-01-23T03:32:16.790Z,-1.29
2023-01-23T03:34:45.345Z,-1.27
2023-01-23T03:37:15.391Z,-1.26
2023-01-23T03:40:04.676Z,-1.33
2023-01-23T03:42:36.371Z,-1.25
2023-01-23T03:45:06.525Z,-1.36
2023-01-23T03:47:36.247Z,-1.29
2023-01-23T03:50:04.730Z,-1.27
2023-01-23T03:52:38.172Z,-1.32
2023-01-23T03:55:07.045Z,-1.27
2023-01-23T03:57:34.754Z,-1.30
2023-01-23T04:00:14.009Z,-1.28
2023-01-23T04:02:43.971Z,-1.31
2023-01-23T04:05:14.198Z,-1.30
2023-01-23T04:07:41.779Z,-1.25
2023-01-23T04:10:12.096Z,-1.25
2023-01-23T04:12:43.572Z,-1.23
2023-01-23T04:15:12.045Z,-1.22
2023-01-23T04:17:42.216Z,-1.27
2023-01-23T04:20:10.977Z,-1.25
2023-01-23T04:22:39.072Z,-1.25
2023-01-23T04:25:07.527Z,-1.26
2023-01-23T04:27:35.160Z,-1.19
2023-01-23T04:30:03.981Z,-1.28
2023-01-23T04:32:32.093Z,-1.27
2023-01-23T04:34:59.589Z,-1.25
2023-01-23T04:37:27.873Z,-1.24
2023-01-23T04:39:56.275Z,-1.26
2023-01-23T04:42:23.860Z,-1.35
2023-01-23T04:45:12.020Z,-1.40
2023-01-23T04:47:58.075Z,-1.33
2023-01-23T04:50:25.835Z,-1.24
2023-01-23T04:52:53.359Z,-1.24
2023-01-23T04:55:20.899Z,-1.18
2023-01-23T04:57:48.737Z,-1.20
2023-01-23T05:00:23.618Z,-1.19
2023-01-23T05:02:52.029Z,-1.16
2023-01-23T05:05:21.435Z,-1.16
2023-01-23T05:07:52.522Z,-1.13
2023-01-23T05:10:20.511Z,-1.14
2023-01-23T05:12:49.581Z,-1.16
2023-01-23T05:15:17.848Z,-1.10
2023-01-23T05:17:47.827Z,-1.10
2023-01-23T05:20:16.446Z,-1.15
2023-01-23T05:22:52.833Z,-1.11
2023-01-23T05:25:29.191Z,-0.92
2023-01-23T05:27:58.505Z,-1.08
2023-01-23T05:30:26.583Z,-1.11
2023-01-23T05:33:05.512Z,-1.09
2023-01-23T05:35:33.123Z,-1.07
2023-01-23T05:38:01.203Z,-1.07
2023-01-23T05:40:28.756Z,-1.05
2023-01-23T05:43:16.603Z,-1.03
2023-01-23T05:46:07.022Z,-1.01
2023-01-23T05:48:44.557Z,-0.97
2023-01-23T05:51:12.531Z,-0.97
2023-01-23T05:53:40.110Z,-1.00
2023-01-23T05:56:09.464Z,-0.94
2023-01-23T05:58:59.683Z,-0.90
2023-01-23T06:01:45.287Z,-0.92
2023-01-23T06:04:48.076Z,-0.84
2023-01-23T06:07:25.199Z,-0.84
2023-01-23T06:09:56.391Z,-0.83
2023-01-23T06:12:24.065Z,-0.79
2023-01-23T06:14:52.229Z,-0.76
2023-01-23T06:17:20.458Z,-0.75
2023-01-23T06:19:49.109Z,-0.74
2023-01-23T06:22:17.420Z,-0.72
2023-01-23T06:25:04.462Z,-0.73
2023-01-23T06:27:32.312Z,-0.70
2023-01-23T06:30:04.133Z,-0.65
2023-01-23T06:32:35.226Z,-0.62
2023-01-23T06:35:04.906Z,-0.62
2023-01-23T06:37:36.511Z,-0.57
2023-01-23T06:40:05.433Z,-0.61
2023-01-23T06:42:33.505Z,-0.60
2023-01-23T06:45:01.641Z,-0.55
2023-01-23T06:47:31.491Z,-0.52
2023-01-23T06:50:02.806Z,-0.49
2023-01-23T06:52:33.951Z,-0.45
2023-01-23T06:55:01.431Z,-0.46
2023-01-23T06:57:30.332Z,-0.43
2023-01-23T06:59:58.106Z,-0.46
2023-01-23T07:02:25.821Z,-0.42
2023-01-23T07:04:53.524Z,-0.42
2023-01-23T07:07:21.093Z,-0.37
2023-01-23T07:09:50.403Z,-0.34
2023-01-23T07:12:24.723Z,-0.30
2023-01-23T07:14:52.470Z,-0.27
2023-01-23T07:17:31.244Z,-0.24
2023-01-23T07:19:59.013Z,-0.21
2023-01-23T07:22:26.617Z,-0.21
2023-01-23T07:24:54.163Z,-0.12
2023-01-23T07:27:21.750Z,-0.11
2023-01-23T07:29:49.216Z,-0.08
2023-01-23T07:32:16.818Z,-0.04
2023-01-23T07:34:44.318Z,0.01
2023-01-23T07:37:11.807Z,-0.03
2023-01-23T07:39:39.376Z,0.11
2023-01-23T07:42:06.882Z,0.11
2023-01-23T07:44:34.347Z,0.15
2023-01-23T07:47:01.771Z,0.15
2023-01-23T07:49:29.364Z,0.21
2023-01-23T07:51:56.818Z,0.23
2023-01-23T07:54:24.370Z,0.30
2023-01-23T07:56:51.914Z,0.34
2023-01-23T07:59:19.487Z,0.36
2023-01-23T08:01:47.035Z,0.40
2023-01-23T08:04:14.831Z,0.45
2023-01-23T08:06:42.297Z,0.46
2023-01-23T08:09:09.871Z,0.47
2023-01-23T08:11:37.373Z,0.44
2023-01-23T08:14:04.910Z,0.49
2023-01-23T08:16:32.399Z,0.49
2023-01-23T08:19:00.120Z,0.43
2023-01-23T08:21:27.650Z,0.53
2023-01-23T08:23:55.055Z,0.54
2023-01-23T08:26:22.527Z,0.49
2023-01-23T08:28:49.998Z,0.51
2023-01-23T08:31:17.595Z,0.48
2023-01-23T08:33:45.165Z,0.51
2023-01-23T08:36:13.997Z,0.55
2023-01-23T08:38:41.885Z,0.53
2023-01-23T08:41:12.132Z,0.52
2023-01-23T08:43:41.935Z,0.55
2023-01-23T08:46:10.647Z,0.54
2023-01-23T08:48:38.557Z,0.48
2023-01-23T08:51:08.905Z,0.53
2023-01-23T08:53:37.421Z,0.49
2023-01-23T08:56:17.354Z,0.53
2023-01-23T08:58:46.305Z,0.53
2023-01-23T09:01:20.839Z,0.60
2023-01-23T09:03:48.969Z,0.59
2023-01-23T09:06:18.844Z,0.64
2023-01-23T09:08:47.104Z,0.59
2023-01-23T09:11:14.786Z,0.58
2023-01-23T09:13:42.711Z,0.62
2023-01-23T09:16:10.474Z,0.63
2023-01-23T09:18:38.136Z,0.63
2023-01-23T09:21:11.708Z,0.69
2023-01-23T09:23:39.275Z,0.70
2023-01-23T09:26:12.452Z,0.76
2023-01-23T09:28:42.988Z,0.78
2023-01-23T09:31:12.890Z,0.77
2023-01-23T09:33:41.399Z,0.75
2023-01-23T09:36:09.509Z,0.71
2023-01-23T09:38:37.448Z,0.75
2023-01-23T09:41:11.832Z,0.78
2023-01-23T09:44:07.672Z,0.85
2023-01-23T09:46:47.242Z,0.85
2023-01-23T09:49:21.810Z,0.83
2023-01-23T09:51:59.655Z,0.73
2023-01-23T09:54:37.602Z,0.84
2023-01-23T09:57:13.979Z,0.76
2023-01-23T09:59:58.767Z,0.77
2023-01-23T10:02:28.324Z,0.79
2023-01-23T10:04:58.372Z,0.78
2023-01-23T10:07:35.138Z,0.85
2023-01-23T10:10:44.596Z,0.82
2023-01-23T10:13:18.898Z,0.79
2023-01-23T10:16:07.887Z,0.85
2023-01-23T10:19:09.200Z,0.88
2023-01-23T10:21:41.714Z,0.80
2023-01-23T10:24:40.042Z,0.84
2023-01-23T10:27:26.930Z,0.84
2023-01-23T10:30:02.681Z,0.81
2023-01-23T10:32:41.616Z,0.76
2023-01-23T10:35:19.369Z,0.71
2023-01-23T10:37:51.530Z,0.60
2023-01-23T10:40:47.356Z,0.70
2023-01-23T10:43:20.742Z,0.65
2023-01-23T10:45:49.941Z,0.61
2023-01-23T10:48:32.729Z,0.59
2023-01-23T10:51:00.963Z,0.48
2023-01-23T10:53:28.582Z,0.43
2023-01-23T10:55:59.822Z,0.50
2023-01-23T10:58:37.089Z,0.34
2023-01-23T11:01:06.361Z,0.25
2023-01-23T11:03:36.200Z,0.21
2023-01-23T11:06:09.290Z,0.24
2023-01-23T11:08:39.897Z,0.25
2023-01-23T11:11:16.815Z,0.25
2023-01-23T11:13:47.274Z,0.20
2023-01-23T11:16:19.763Z,0.18
2023-01-23T11:18:55.687Z,0.18
2023-01-23T11:21:24.575Z,0.16
2023-01-23T11:24:09.892Z,0.27
2023-01-23T11:26:39.033Z,0.19
2023-01-23T11:29:25.771Z,0.27
2023-01-23T11:31:59.512Z,0.19
2023-01-23T11:34:35.151Z,0.23
2023-01-23T11:37:28.952Z,0.27
2023-01-23T11:40:18.607Z,0.30
2023-01-23T11:42:47.182Z,0.15
2023-01-23T11:45:35.605Z,0.15
2023-01-23T11:48:12.363Z,0.13
2023-01-23T11:51:07.638Z,0.24
2023-01-23T11:53:58.279Z,0.05
2023-01-23T11:57:11.077Z,0.14
2023-01-23T12:00:00.017Z,0.11
2023-01-23T12:02:38.495Z,0.04
2023-01-23T12:05:34.105Z,0.04
2023-01-23T12:08:28.189Z,-0.02
2023-01-23T12:11:14.130Z,-0.06
2023-01-23T12:14:05.950Z,-0.07
2023-01-23T12:16:58.344Z,-0.14
2023-01-23T12:20:09.354Z,-0.15
2023-01-23T12:22:55.296Z,-0.12
2023-01-23T12:25:35.146Z,-0.21
2023-01-23T12:28:18.063Z,-0.29
2023-01-23T12:31:22.527Z,-0.25
2023-01-23T12:33:50.111Z,-0.38
2023-01-23T12:36:59.460Z,-0.31
2023-01-23T12:39:37.583Z,-0.39
2023-01-23T12:42:13.663Z,-0.34
2023-01-23T12:44:49.485Z,-0.41
2023-01-23T12:47:44.955Z,-0.34
2023-01-23T12:50:24.811Z,-0.38
2023-01-23T12:53:04.116Z,-0.43
2023-01-23T12:55:36.123Z,-0.51
2023-01-23T12:58:09.583Z,-0.56
2023-01-23T13:01:09.457Z,-0.45
2023-01-23T13:03:46.103Z,-0.55
2023-01-23T13:06:38.032Z,-0.54
2023-01-23T13:09:33.733Z,-0.53
2023-01-23T13:12:22.292Z,-0.56
2023-01-23T13:17:49.159Z,-0.63
2023-01-23T13:20:43.463Z,-0.56
2023-01-23T13:23:20.251Z,-0.57
2023-01-23T13:25:48.372Z,-0.67
2023-01-23T13:28:44.632Z,-0.55
2023-01-23T13:31:46.946Z,-0.50
2023-01-23T13:34:18.060Z,-0.64
2023-01-23T13:36:53.486Z,-0.64
2023-01-23T13:39:26.034Z,-0.67
2023-01-23T13:42:16.330Z,-0.58
2023-01-23T13:45:19.164Z,-0.58
2023-01-23T14:20:19.619Z,-0.77
2023-01-23T14:22:47.688Z,-0.81
2023-01-23T14:25:18.831Z,-0.83
2023-01-23T14:30:30.621Z,-0.86
2023-01-23T14:33:01.354Z,-0.89
2023-01-23T14:35:33.109Z,-0.88
2023-01-23T14:38:05.742Z,-0.86
2023-01-23T14:40:49.053Z,-0.89
2023-01-23T14:43:27.096Z,-0.87
2023-01-23T14:46:08.202Z,-0.82
2023-01-23T14:48:40.783Z,-0.85
2023-01-23T14:51:20.117Z,-0.93
2023-01-23T14:53:57.278Z,-0.87
2023-01-23T14:56:37.234Z,-1.01
2023-01-23T14:59:08.455Z,-0.94
2023-01-23T15:01:36.258Z,-1.12
2023-01-23T15:04:07.815Z,-1.17
2023-01-23T15:06:36.806Z,-1.17
2023-01-23T15:09:18.040Z,-1.04
2023-01-23T15:11:46.180Z,-1.10
2023-01-23T15:14:36.931Z,-1.00
2023-01-23T15:17:08.236Z,-1.03
2023-01-23T15:19:38.100Z,-1.06
2023-01-23T15:22:22.291Z,-1.03
2023-01-23T15:24:50.019Z,-1.20
2023-01-23T15:27:43.711Z,-1.13
2023-01-23T15:30:36.237Z,-1.10
2023-01-23T15:33:09.430Z,-1.25
2023-01-23T15:35:38.868Z,-1.22
2023-01-23T15:38:08.656Z,-1.27
2023-01-23T15:40:38.751Z,-1.25
2023-01-23T15:43:19.082Z,-1.27
2023-01-23T15:45:47.258Z,-1.35
2023-01-23T15:48:14.789Z,-1.35
2023-01-23T15:50:42.629Z,-1.46
2023-01-23T15:53:14.787Z,-1.39
2023-01-23T15:55:42.271Z,-1.43
2023-01-23T15:58:17.147Z,-1.46
2023-01-23T16:00:44.684Z,-1.49
2023-01-23T16:03:15.024Z,-1.40
2023-01-23T16:06:02.339Z,-1.31
2023-01-23T16:08:30.037Z,-1.38
2023-01-23T16:10:57.646Z,-1.35
2023-01-23T16:13:25.305Z,-1.34
2023-01-23T16:15:53.367Z,-1.34
2023-01-23T16:18:21.213Z,-1.36
2023-01-23T16:20:49.124Z,-1.47
2023-01-23T16:23:29.280Z,-1.31
2023-01-23T16:26:06.585Z,-1.38
2023-01-23T16:31:21.916Z,-1.34
2023-01-23T16:33:49.855Z,-1.39
2023-01-23T16:36:19.149Z,-1.39
2023-01-23T16:38:56.338Z,-1.34
2023-01-23T16:41:23.930Z,-1.40
2023-01-23T16:43:51.443Z,-1.39
2023-01-23T16:46:20.350Z,-1.35
2023-01-23T16:48:50.806Z,-1.35
2023-01-23T16:51:23.607Z,-1.31
2023-01-23T16:53:56.282Z,-1.36
2023-01-23T16:56:30.451Z,-1.35
2023-01-23T16:58:58.442Z,-1.42
2023-01-23T17:01:27.408Z,-1.45
2023-01-23T17:03:59.567Z,-1.46
2023-01-23T17:06:27.414Z,-1.54
2023-01-23T17:08:56.417Z,-1.47
2023-01-23T17:11:29.746Z,-1.45
2023-01-23T17:14:02.980Z,-1.38
2023-01-23T17:16:30.682Z,-1.47
2023-01-23T17:19:01.394Z,-1.39
2023-01-23T17:21:34.254Z,-1.43
2023-01-23T17:24:02.047Z,-1.50
2023-01-23T17:26:29.631Z,-1.48
2023-01-23T17:28:57.452Z,-1.47
2023-01-23T17:31:28.743Z,-1.40
2023-01-23T17:33:56.527Z,-1.47
2023-01-23T17:36:27.702Z,-1.49
2023-01-23T17:38:58.002Z,-1.48
2023-01-23T17:41:25.768Z,-1.52
2023-01-23T17:43:53.421Z,-1.48
2023-01-23T17:46:26.544Z,-1.56
2023-01-23T17:48:55.175Z,-1.54
2023-01-23T17:51:26.680Z,-1.53
2023-01-23T17:53:55.564Z,-1.53
2023-01-23T17:56:23.428Z,-1.47
2023-01-23T17:58:51.021Z,-1.48
2023-01-23T18:01:22.664Z,-1.44
2023-01-23T18:03:51.610Z,-1.41
2023-01-23T18:06:21.443Z,-1.34
2023-01-23T18:08:49.239Z,-1.37
2023-01-23T18:11:20.247Z,-1.39
2023-01-23T18:13:50.756Z,-1.47
2023-01-23T18:16:26.858Z,-1.49
2023-01-23T18:19:04.834Z,-1.44
2023-01-23T18:21:32.784Z,-1.52
2023-01-23T18:24:00.747Z,-1.61
2023-01-23T18:26:56.119Z,-1.45
2023-01-23T18:29:30.283Z,-1.62
2023-01-23T18:32:15.376Z,-1.59
2023-01-23T18:34:52.249Z,-1.53
2023-01-23T18:37:33.872Z,-1.49
2023-01-23T18:40:05.084Z,-1.46
2023-01-23T18:42:38.951Z,-1.46
2023-01-23T18:45:11.049Z,-1.31
2023-01-23T18:47:39.924Z,-1.40
2023-01-23T18:50:11.323Z,-1.35
2023-01-23T18:53:12.224Z,-1.31
2023-01-23T18:55:52.366Z,-1.26
2023-01-23T18:59:06.208Z,-1.22
2023-01-23T19:02:26.309Z,-1.19
2023-01-23T19:05:16.233Z,-1.06
2023-01-23T19:07:45.309Z,-1.13
2023-01-23T19:10:18.372Z,-1.14
2023-01-23T19:13:14.064Z,-1.03
2023-01-23T19:16:08.758Z,-1.04
2023-01-23T19:18:48.890Z,-1.10
2023-01-23T19:21:26.999Z,-1.11
2023-01-23T19:24:01.843Z,-1.11
2023-01-23T19:26:37.789Z,-1.08
2023-01-23T19:29:21.615Z,-1.30
2023-01-23T19:32:06.607Z,-1.19
2023-01-23T19:34:35.007Z,-1.09
2023-01-23T19:37:03.359Z,-1.13
2023-01-23T19:39:31.212Z,-1.14
2023-01-23T19:41:59.578Z,-1.13
2023-01-23T19:44:29.177Z,-1.09
2023-01-23T19:46:56.791Z,-1.11
2023-01-23T19:49:25.539Z,-1.04
2023-01-23T19:51:53.277Z,-1.03
2023-01-23T19:54:23.002Z,-1.08
2023-01-23T19:56:52.307Z,-1.11
2023-01-23T19:59:19.882Z,-1.12
2023-01-23T20:01:52.754Z,-1.06
2023-01-23T20:04:36.865Z,-1.10
2023-01-23T20:07:04.890Z,-1.05
2023-01-23T20:09:32.367Z,-1.09
2023-01-23T20:12:03.271Z,-1.10
2023-01-23T20:14:31.008Z,-1.08
2023-01-23T20:17:24.393Z,-1.06
2023-01-23T20:19:56.245Z,-1.21
2023-01-23T20:22:24.968Z,-1.18
2023-01-23T20:24:52.330Z,-1.09
2023-01-23T20:27:20.527Z,-1.09
2023-01-23T20:29:52.242Z,-1.09
2023-01-23T20:32:19.911Z,-1.13
2023-01-23T20:34:47.760Z,-1.15
2023-01-23T20:37:15.442Z,-1.26
2023-01-23T20:39:43.032Z,-1.19
2023-01-23T20:42:11.376Z,-1.17
2023-01-23T20:44:39.028Z,-1.30
2023-01-23T20:47:06.883Z,-1.34
2023-01-23T20:49:34.374Z,-1.26
2023-01-23T20:52:20.082Z,-1.30
2023-01-23T20:54:47.994Z,-1.23
2023-01-23T20:57:16.331Z,-1.21
2023-01-23T20:59:43.758Z,-1.26
2023-01-23T21:02:24.543Z,-1.38
2023-01-23T21:04:53.601Z,-1.34
2023-01-23T21:07:22.405Z,-1.33
2023-01-23T21:09:50.003Z,-1.30
2023-01-23T21:12:17.602Z,-1.25
2023-01-23T21:14:45.363Z,-1.38
2023-01-23T21:17:12.829Z,-1.29
2023-01-23T21:19:40.396Z,-1.21
2023-01-23T21:22:08.295Z,-1.23
2023-01-23T21:24:36.710Z,-1.17
2023-01-23T21:27:06.058Z,-1.13
2023-01-23T21:29:34.222Z,-1.14
2023-01-23T21:32:01.867Z,-1.20
2023-01-23T21:34:30.637Z,-1.16
2023-01-23T21:36:58.156Z,-1.18
2023-01-23T21:39:25.650Z,-1.18
2023-01-23T21:41:53.190Z,-1.21
2023-01-23T21:44:20.872Z,-1.15
2023-01-23T21:46:49.427Z,-1.17
2023-01-23T21:49:16.887Z,-1.17
2023-01-23T21:51:45.263Z,-1.15
2023-01-23T21:54:12.739Z,-1.12
2023-01-23T21:56:40.245Z,-1.13
2023-01-23T21:59:07.659Z,-1.25
2023-01-23T22:01:52.899Z,-1.22
2023-01-23T22:04:24.240Z,-1.21
2023-01-23T22:06:56.553Z,-1.18
2023-01-23T22:09:25.699Z,-1.23
2023-01-23T22:11:54.214Z,-1.22
2023-01-23T22:14:21.789Z,-1.22
2023-01-23T22:16:50.538Z,-1.34
2023-01-23T22:19:25.299Z,-1.18
2023-01-23T22:21:57.430Z,-1.15
2023-01-23T22:24:25.336Z,-1.20
2023-01-23T22:26:52.787Z,-1.22
2023-01-23T22:29:20.400Z,-1.23
2023-01-23T22:31:47.963Z,-1.24
2023-01-23T22:34:15.623Z,-1.20
2023-01-23T22:36:43.069Z,-1.19
2023-01-23T22:39:14.102Z,-1.13
2023-01-23T22:41:41.569Z,-1.21
2023-01-23T22:44:09.059Z,-1.24
2023-01-23T22:46:36.593Z,-1.24
2023-01-23T22:49:04.272Z,-1.21
2023-01-23T22:51:32.008Z,-1.25
2023-01-23T22:53:59.638Z,-1.21
2023-01-23T22:56:28.679Z,-1.39
2023-01-23T22:58:57.283Z,-1.47
2023-01-23T23:01:27.462Z,-1.39
2023-01-23T23:03:58.032Z,-1.35
2023-01-23T23:06:26.372Z,-1.30
2023-01-23T23:08:53.856Z,-1.31
2023-01-23T23:11:23.853Z,-1.27
2023-01-23T23:13:51.633Z,-1.33
2023-01-23T23:16:31.432Z,-1.27
2023-01-23T23:19:02.531Z,-1.29
2023-01-23T23:21:34.305Z,-1.30
2023-01-23T23:24:02.950Z,-1.36
2023-01-23T23:26:31.915Z,-1.34
2023-01-23T23:29:01.054Z,-1.39
2023-01-23T23:31:28.918Z,-1.44
2023-01-23T23:33:56.620Z,-1.45
2023-01-23T23:36:24.269Z,-1.48
2023-01-23T23:38:51.786Z,-1.52
2023-01-23T23:41:19.759Z,-1.54
2023-01-23T23:43:47.336Z,-1.66
2023-01-23T23:46:16.570Z,-1.59
2023-01-23T23:48:44.226Z,-1.61
2023-01-23T23:51:14.236Z,-1.62
2023-01-23T23:53:42.091Z,-1.66
2023-01-23T23:56:13.608Z,-1.76
2023-01-23T23:58:41.036Z,-1.75
